logo
Rechercher aéroport 
image banner adimage banner adimage banner ad
image banner ad

SWKE - Cobrape

Situé à Formoso Do Araguaia, Brazil

ICAO - SWKE, IATA -

Données fournies par Airmate  

Information générale

Coordonnées: S11°29'6" W49°57'16"
Élévation : 626 feet MSL.
Variation magnétique : -21.070384048° East
Voir autres Aéroports à Tocatins

Données opérationnelles

Special qualification required
Heure actuelle UTC:
Heure actuelle locale:
Météo à : - ( 0 km )
METAR: LWSK 270420Z VRB01KT 9999 FEW049 13/12 Q1019 NOSIG
Voir NOTAMs / SUP AIP / TFR affectant cet aéroport [VIEW]
Fréquences de communication: [VIEW]

Pistes:

Identifiant RWYQFULongueur (ft)Largeur (ft)SurfaceLDA (ft)
15328159GRAVEL
33328159GRAVEL

Coordonnées de l'aéroport

Adresse: Formoso Do Araguaia Brazil

Vue satellite de SWKE